sensor_id;sensor_type;location;lat;lon;timestamp;temperature;humidity
13606;DHT22;6874;52.084;5.090;2022-10-16T00:01:08;13.00;99.90
13606;DHT22;6874;52.084;5.090;2022-10-16T00:03:34;12.90;99.90
13606;DHT22;6874;52.084;5.090;2022-10-16T00:06:01;12.90;99.90
13606;DHT22;6874;52.084;5.090;2022-10-16T00:08:27;12.90;99.90
13606;DHT22;6874;52.084;5.090;2022-10-16T00:10:57;12.90;99.90
13606;DHT22;6874;52.084;5.090;2022-10-16T00:13:23;12.90;99.90
13606;DHT22;6874;52.084;5.090;2022-10-16T00:15:48;12.90;99.90
13606;DHT22;6874;52.084;5.090;2022-10-16T00:18:14;12.90;99.90
13606;DHT22;6874;52.084;5.090;2022-10-16T00:20:39;12.90;99.90
13606;DHT22;6874;52.084;5.090;2022-10-16T00:23:05;12.90;99.90
13606;DHT22;6874;52.084;5.090;2022-10-16T00:25:31;12.90;99.90
13606;DHT22;6874;52.084;5.090;2022-10-16T00:27:59;12.90;99.90
13606;DHT22;6874;52.084;5.090;2022-10-16T00:30:25;12.90;99.90
13606;DHT22;6874;52.084;5.090;2022-10-16T00:32:53;12.80;99.90
13606;DHT22;6874;52.084;5.090;2022-10-16T00:35:18;12.90;99.90
13606;DHT22;6874;52.084;5.090;2022-10-16T00:37:44;12.80;99.90
13606;DHT22;6874;52.084;5.090;2022-10-16T00:40:10;12.90;99.90
13606;DHT22;6874;52.084;5.090;2022-10-16T00:42:36;12.90;99.90
13606;DHT22;6874;52.084;5.090;2022-10-16T00:45:03;12.90;99.90
13606;DHT22;6874;52.084;5.090;2022-10-16T00:47:38;12.90;99.90
13606;DHT22;6874;52.084;5.090;2022-10-16T00:50:24;12.80;99.90
13606;DHT22;6874;52.084;5.090;2022-10-16T00:52:52;12.90;99.90
13606;DHT22;6874;52.084;5.090;2022-10-16T00:55:18;12.90;99.90
13606;DHT22;6874;52.084;5.090;2022-10-16T00:57:45;12.90;99.90
13606;DHT22;6874;52.084;5.090;2022-10-16T01:00:14;12.90;99.90
13606;DHT22;6874;52.084;5.090;2022-10-16T01:02:41;12.90;99.90
13606;DHT22;6874;52.084;5.090;2022-10-16T01:05:07;12.90;99.90
13606;DHT22;6874;52.084;5.090;2022-10-16T01:10:36;12.90;99.90
13606;DHT22;6874;52.084;5.090;2022-10-16T01:13:07;12.90;99.90
13606;DHT22;6874;52.084;5.090;2022-10-16T01:15:58;12.90;99.90
13606;DHT22;6874;52.084;5.090;2022-10-16T01:21:17;12.90;99.90
13606;DHT22;6874;52.084;5.090;2022-10-16T01:23:59;12.90;99.90
13606;DHT22;6874;52.084;5.090;2022-10-16T01:29:30;12.90;99.90
13606;DHT22;6874;52.084;5.090;2022-10-16T01:32:01;12.90;99.90
13606;DHT22;6874;52.084;5.090;2022-10-16T01:34:49;12.90;99.90
13606;DHT22;6874;52.084;5.090;2022-10-16T01:37:23;12.90;99.90
13606;DHT22;6874;52.084;5.090;2022-10-16T01:39:52;12.90;99.90
13606;DHT22;6874;52.084;5.090;2022-10-16T01:42:23;12.90;99.90
13606;DHT22;6874;52.084;5.090;2022-10-16T01:44:51;12.90;99.90
13606;DHT22;6874;52.084;5.090;2022-10-16T01:47:21;12.90;99.90
13606;DHT22;6874;52.084;5.090;2022-10-16T01:49:48;12.90;99.90
13606;DHT22;6874;52.084;5.090;2022-10-16T01:52:18;12.90;99.90
13606;DHT22;6874;52.084;5.090;2022-10-16T01:54:47;12.90;99.90
13606;DHT22;6874;52.084;5.090;2022-10-16T01:57:16;13.00;99.90
13606;DHT22;6874;52.084;5.090;2022-10-16T01:59:46;12.90;99.90
13606;DHT22;6874;52.084;5.090;2022-10-16T02:02:13;13.00;99.90
13606;DHT22;6874;52.084;5.090;2022-10-16T02:04:46;12.90;99.90
13606;DHT22;6874;52.084;5.090;2022-10-16T02:07:13;12.90;99.90
13606;DHT22;6874;52.084;5.090;2022-10-16T02:09:39;13.00;99.90
13606;DHT22;6874;52.084;5.090;2022-10-16T02:12:15;13.00;99.90
13606;DHT22;6874;52.084;5.090;2022-10-16T02:14:41;12.90;99.90
13606;DHT22;6874;52.084;5.090;2022-10-16T02:17:15;12.90;99.90
13606;DHT22;6874;52.084;5.090;2022-10-16T02:19:42;13.00;99.90
13606;DHT22;6874;52.084;5.090;2022-10-16T02:22:11;13.00;99.90
13606;DHT22;6874;52.084;5.090;2022-10-16T02:24:57;12.90;99.90
13606;DHT22;6874;52.084;5.090;2022-10-16T02:27:33;12.90;99.90
13606;DHT22;6874;52.084;5.090;2022-10-16T02:30:13;12.90;99.90
13606;DHT22;6874;52.084;5.090;2022-10-16T02:32:42;12.90;99.90
13606;DHT22;6874;52.084;5.090;2022-10-16T02:35:09;12.90;99.90
13606;DHT22;6874;52.084;5.090;2022-10-16T02:37:36;12.90;99.90
13606;DHT22;6874;52.084;5.090;2022-10-16T02:40:02;12.90;99.90
13606;DHT22;6874;52.084;5.090;2022-10-16T02:42:35;12.90;99.90
13606;DHT22;6874;52.084;5.090;2022-10-16T02:45:01;12.90;99.90
13606;DHT22;6874;52.084;5.090;2022-10-16T02:47:26;12.90;99.90
13606;DHT22;6874;52.084;5.090;2022-10-16T02:49:52;12.90;99.90
13606;DHT22;6874;52.084;5.090;2022-10-16T02:52:17;12.90;99.90
13606;DHT22;6874;52.084;5.090;2022-10-16T02:54:43;12.90;99.90
13606;DHT22;6874;52.084;5.090;2022-10-16T02:57:08;12.90;99.90
13606;DHT22;6874;52.084;5.090;2022-10-16T02:59:34;12.90;99.90
13606;DHT22;6874;52.084;5.090;2022-10-16T03:01:59;12.90;99.90
13606;DHT22;6874;52.084;5.090;2022-10-16T03:04:25;12.90;99.90
13606;DHT22;6874;52.084;5.090;2022-10-16T03:06:51;12.90;99.90
13606;DHT22;6874;52.084;5.090;2022-10-16T03:09:16;12.90;99.90
13606;DHT22;6874;52.084;5.090;2022-10-16T03:11:42;12.80;99.90
13606;DHT22;6874;52.084;5.090;2022-10-16T03:14:07;12.80;99.90
13606;DHT22;6874;52.084;5.090;2022-10-16T03:16:33;12.90;99.90
13606;DHT22;6874;52.084;5.090;2022-10-16T03:18:58;12.90;99.90
13606;DHT22;6874;52.084;5.090;2022-10-16T03:21:24;12.90;99.90
13606;DHT22;6874;52.084;5.090;2022-10-16T03:23:50;12.90;99.90
13606;DHT22;6874;52.084;5.090;2022-10-16T03:26:15;12.80;99.90
13606;DHT22;6874;52.084;5.090;2022-10-16T03:28:41;12.80;99.90
13606;DHT22;6874;52.084;5.090;2022-10-16T03:31:06;12.80;99.90
13606;DHT22;6874;52.084;5.090;2022-10-16T03:33:32;12.80;99.90
13606;DHT22;6874;52.084;5.090;2022-10-16T03:35:57;12.80;99.90
13606;DHT22;6874;52.084;5.090;2022-10-16T03:38:23;12.80;99.90
13606;DHT22;6874;52.084;5.090;2022-10-16T03:40:49;12.80;99.90
13606;DHT22;6874;52.084;5.090;2022-10-16T03:43:14;12.80;99.90
13606;DHT22;6874;52.084;5.090;2022-10-16T03:45:40;12.80;99.90
13606;DHT22;6874;52.084;5.090;2022-10-16T03:48:05;12.80;99.90
13606;DHT22;6874;52.084;5.090;2022-10-16T03:50:31;12.80;99.90
13606;DHT22;6874;52.084;5.090;2022-10-16T03:52:56;12.80;99.90
13606;DHT22;6874;52.084;5.090;2022-10-16T03:55:22;12.80;99.90
13606;DHT22;6874;52.084;5.090;2022-10-16T03:57:47;12.70;99.90
13606;DHT22;6874;52.084;5.090;2022-10-16T04:00:13;12.70;99.90
13606;DHT22;6874;52.084;5.090;2022-10-16T04:02:39;12.70;99.90
13606;DHT22;6874;52.084;5.090;2022-10-16T04:05:05;12.70;99.90
13606;DHT22;6874;52.084;5.090;2022-10-16T04:07:31;12.70;99.90
13606;DHT22;6874;52.084;5.090;2022-10-16T04:09:56;12.70;99.90
13606;DHT22;6874;52.084;5.090;2022-10-16T04:12:24;12.70;99.90
13606;DHT22;6874;52.084;5.090;2022-10-16T04:14:49;12.70;99.90
13606;DHT22;6874;52.084;5.090;2022-10-16T04:17:15;12.70;99.90
13606;DHT22;6874;52.084;5.090;2022-10-16T04:19:40;12.70;99.90
13606;DHT22;6874;52.084;5.090;2022-10-16T04:22:06;12.70;99.90
13606;DHT22;6874;52.084;5.090;2022-10-16T04:24:32;12.70;99.90
13606;DHT22;6874;52.084;5.090;2022-10-16T04:26:57;12.70;99.90
13606;DHT22;6874;52.084;5.090;2022-10-16T04:29:23;12.70;99.90
13606;DHT22;6874;52.084;5.090;2022-10-16T04:31:48;12.70;99.90
13606;DHT22;6874;52.084;5.090;2022-10-16T04:34:14;12.70;99.90
13606;DHT22;6874;52.084;5.090;2022-10-16T04:36:39;12.70;99.90
13606;DHT22;6874;52.084;5.090;2022-10-16T04:39:05;12.70;99.90
13606;DHT22;6874;52.084;5.090;2022-10-16T04:41:30;12.70;99.90
13606;DHT22;6874;52.084;5.090;2022-10-16T04:43:56;12.70;99.90
13606;DHT22;6874;52.084;5.090;2022-10-16T04:46:21;12.70;99.90
13606;DHT22;6874;52.084;5.090;2022-10-16T04:48:47;12.70;99.90
13606;DHT22;6874;52.084;5.090;2022-10-16T04:51:13;12.70;99.90
13606;DHT22;6874;52.084;5.090;2022-10-16T04:53:38;12.70;99.90
13606;DHT22;6874;52.084;5.090;2022-10-16T04:56:04;12.70;99.90
13606;DHT22;6874;52.084;5.090;2022-10-16T04:58:29;12.70;99.90
13606;DHT22;6874;52.084;5.090;2022-10-16T05:00:55;12.70;99.90
13606;DHT22;6874;52.084;5.090;2022-10-16T05:03:21;12.60;99.90
13606;DHT22;6874;52.084;5.090;2022-10-16T05:05:46;12.60;99.90
13606;DHT22;6874;52.084;5.090;2022-10-16T05:08:13;12.60;99.90
13606;DHT22;6874;52.084;5.090;2022-10-16T05:10:40;12.60;99.90
13606;DHT22;6874;52.084;5.090;2022-10-16T05:13:06;12.60;99.90
13606;DHT22;6874;52.084;5.090;2022-10-16T05:15:31;12.60;99.90
13606;DHT22;6874;52.084;5.090;2022-10-16T05:17:57;12.60;99.90
13606;DHT22;6874;52.084;5.090;2022-10-16T05:20:23;12.60;99.90
13606;DHT22;6874;52.084;5.090;2022-10-16T05:22:48;12.50;99.90
13606;DHT22;6874;52.084;5.090;2022-10-16T05:25:14;12.60;99.90
13606;DHT22;6874;52.084;5.090;2022-10-16T05:27:39;12.60;99.90
13606;DHT22;6874;52.084;5.090;2022-10-16T05:30:05;12.60;99.90
13606;DHT22;6874;52.084;5.090;2022-10-16T05:32:31;12.60;99.90
13606;DHT22;6874;52.084;5.090;2022-10-16T05:34:57;12.60;99.90
13606;DHT22;6874;52.084;5.090;2022-10-16T05:37:25;12.60;99.90
13606;DHT22;6874;52.084;5.090;2022-10-16T05:39:51;12.60;99.90
13606;DHT22;6874;52.084;5.090;2022-10-16T05:42:16;12.60;99.90
13606;DHT22;6874;52.084;5.090;2022-10-16T05:44:42;12.60;99.90
13606;DHT22;6874;52.084;5.090;2022-10-16T05:47:07;12.60;99.90
13606;DHT22;6874;52.084;5.090;2022-10-16T05:49:33;12.60;99.90
13606;DHT22;6874;52.084;5.090;2022-10-16T05:51:58;12.60;99.90
13606;DHT22;6874;52.084;5.090;2022-10-16T05:54:24;12.60;99.90
13606;DHT22;6874;52.084;5.090;2022-10-16T05:56:49;12.60;99.90
13606;DHT22;6874;52.084;5.090;2022-10-16T05:59:15;12.60;99.90
13606;DHT22;6874;52.084;5.090;2022-10-16T06:01:41;12.60;99.90
13606;DHT22;6874;52.084;5.090;2022-10-16T06:04:06;12.60;99.90
13606;DHT22;6874;52.084;5.090;2022-10-16T06:06:32;12.60;99.90
13606;DHT22;6874;52.084;5.090;2022-10-16T06:08:58;12.60;99.90
13606;DHT22;6874;52.084;5.090;2022-10-16T06:11:27;12.60;99.90
13606;DHT22;6874;52.084;5.090;2022-10-16T06:13:56;12.60;99.90
13606;DHT22;6874;52.084;5.090;2022-10-16T06:16:27;12.60;99.90
13606;DHT22;6874;52.084;5.090;2022-10-16T06:18:54;12.60;99.90
13606;DHT22;6874;52.084;5.090;2022-10-16T06:21:23;12.60;99.90
13606;DHT22;6874;52.084;5.090;2022-10-16T06:23:52;12.60;99.90
13606;DHT22;6874;52.084;5.090;2022-10-16T06:26:20;12.60;99.90
13606;DHT22;6874;52.084;5.090;2022-10-16T06:28:47;12.60;99.90
13606;DHT22;6874;52.084;5.090;2022-10-16T06:31:13;12.60;99.90
13606;DHT22;6874;52.084;5.090;2022-10-16T06:33:39;12.60;99.90
13606;DHT22;6874;52.084;5.090;2022-10-16T06:36:10;12.60;99.90
13606;DHT22;6874;52.084;5.090;2022-10-16T06:38:36;12.60;99.90
13606;DHT22;6874;52.084;5.090;2022-10-16T06:41:03;12.50;99.90
13606;DHT22;6874;52.084;5.090;2022-10-16T06:43:29;12.60;99.90
13606;DHT22;6874;52.084;5.090;2022-10-16T06:45:58;12.60;99.90
13606;DHT22;6874;52.084;5.090;2022-10-16T06:48:25;12.60;99.90
13606;DHT22;6874;52.084;5.090;2022-10-16T06:51:06;12.60;99.90
13606;DHT22;6874;52.084;5.090;2022-10-16T06:53:33;12.60;99.90
13606;DHT22;6874;52.084;5.090;2022-10-16T06:56:10;12.60;99.90
13606;DHT22;6874;52.084;5.090;2022-10-16T06:58:36;12.60;99.90
13606;DHT22;6874;52.084;5.090;2022-10-16T07:01:03;12.60;99.90
13606;DHT22;6874;52.084;5.090;2022-10-16T07:03:28;12.60;99.90
13606;DHT22;6874;52.084;5.090;2022-10-16T07:05:54;12.60;99.90
13606;DHT22;6874;52.084;5.090;2022-10-16T07:08:19;12.60;99.90
13606;DHT22;6874;52.084;5.090;2022-10-16T07:10:45;12.60;99.90
13606;DHT22;6874;52.084;5.090;2022-10-16T07:13:10;12.60;99.90
13606;DHT22;6874;52.084;5.090;2022-10-16T07:15:39;12.60;99.90
13606;DHT22;6874;52.084;5.090;2022-10-16T07:18:04;12.70;99.90
13606;DHT22;6874;52.084;5.090;2022-10-16T07:20:30;12.70;99.90
13606;DHT22;6874;52.084;5.090;2022-10-16T07:22:55;12.70;99.90
13606;DHT22;6874;52.084;5.090;2022-10-16T07:25:21;12.70;99.90
13606;DHT22;6874;52.084;5.090;2022-10-16T07:27:46;12.70;99.90
13606;DHT22;6874;52.084;5.090;2022-10-16T07:30:12;12.70;99.90
13606;DHT22;6874;52.084;5.090;2022-10-16T07:32:37;12.70;99.90
13606;DHT22;6874;52.084;5.090;2022-10-16T07:35:03;12.70;99.90
13606;DHT22;6874;52.084;5.090;2022-10-16T07:37:29;12.70;99.90
13606;DHT22;6874;52.084;5.090;2022-10-16T07:39:54;12.70;99.90
13606;DHT22;6874;52.084;5.090;2022-10-16T07:42:20;12.80;99.90
13606;DHT22;6874;52.084;5.090;2022-10-16T07:44:46;12.80;99.90
13606;DHT22;6874;52.084;5.090;2022-10-16T07:47:11;12.80;99.90
13606;DHT22;6874;52.084;5.090;2022-10-16T07:49:37;12.80;99.90
13606;DHT22;6874;52.084;5.090;2022-10-16T07:52:02;12.80;99.90
13606;DHT22;6874;52.084;5.090;2022-10-16T07:54:28;12.80;99.90
13606;DHT22;6874;52.084;5.090;2022-10-16T07:56:53;12.80;99.90
13606;DHT22;6874;52.084;5.090;2022-10-16T07:59:19;12.80;99.90
13606;DHT22;6874;52.084;5.090;2022-10-16T08:01:44;12.70;99.90
13606;DHT22;6874;52.084;5.090;2022-10-16T08:04:10;12.80;99.90
13606;DHT22;6874;52.084;5.090;2022-10-16T08:06:37;12.80;99.90
13606;DHT22;6874;52.084;5.090;2022-10-16T08:09:04;12.80;99.90
13606;DHT22;6874;52.084;5.090;2022-10-16T08:11:29;12.80;99.90
13606;DHT22;6874;52.084;5.090;2022-10-16T08:13:55;12.80;99.90
13606;DHT22;6874;52.084;5.090;2022-10-16T08:16:21;12.80;99.90
13606;DHT22;6874;52.084;5.090;2022-10-16T08:18:46;12.80;99.90
13606;DHT22;6874;52.084;5.090;2022-10-16T08:21:15;12.80;99.90
13606;DHT22;6874;52.084;5.090;2022-10-16T08:23:41;12.80;99.90
13606;DHT22;6874;52.084;5.090;2022-10-16T08:26:08;12.80;99.90
13606;DHT22;6874;52.084;5.090;2022-10-16T08:28:34;12.80;99.90
13606;DHT22;6874;52.084;5.090;2022-10-16T08:31:12;12.80;99.90
13606;DHT22;6874;52.084;5.090;2022-10-16T08:33:40;12.80;99.90
13606;DHT22;6874;52.084;5.090;2022-10-16T08:36:06;12.80;99.90
13606;DHT22;6874;52.084;5.090;2022-10-16T08:38:33;12.90;99.90
13606;DHT22;6874;52.084;5.090;2022-10-16T08:46:43;12.90;99.90
13606;DHT22;6874;52.084;5.090;2022-10-16T08:49:12;12.90;99.90
13606;DHT22;6874;52.084;5.090;2022-10-16T08:51:42;12.90;99.90
13606;DHT22;6874;52.084;5.090;2022-10-16T08:54:29;12.90;99.90
13606;DHT22;6874;52.084;5.090;2022-10-16T08:56:59;12.90;99.90
13606;DHT22;6874;52.084;5.090;2022-10-16T08:59:26;12.90;99.90
13606;DHT22;6874;52.084;5.090;2022-10-16T09:01:52;12.90;99.90
13606;DHT22;6874;52.084;5.090;2022-10-16T09:07:29;13.00;99.90
13606;DHT22;6874;52.084;5.090;2022-10-16T09:13:02;13.00;99.90
13606;DHT22;6874;52.084;5.090;2022-10-16T09:15:39;13.00;99.90
13606;DHT22;6874;52.084;5.090;2022-10-16T09:18:10;13.10;99.90
13606;DHT22;6874;52.084;5.090;2022-10-16T09:23:25;13.10;99.90
13606;DHT22;6874;52.084;5.090;2022-10-16T09:25:52;13.20;99.90
13606;DHT22;6874;52.084;5.090;2022-10-16T09:28:18;13.20;99.90
13606;DHT22;6874;52.084;5.090;2022-10-16T09:30:45;13.20;99.90
13606;DHT22;6874;52.084;5.090;2022-10-16T09:33:12;13.30;99.90
13606;DHT22;6874;52.084;5.090;2022-10-16T09:35:44;13.30;99.90
13606;DHT22;6874;52.084;5.090;2022-10-16T09:38:21;13.30;99.90
13606;DHT22;6874;52.084;5.090;2022-10-16T09:40:47;13.40;99.90
13606;DHT22;6874;52.084;5.090;2022-10-16T09:45:39;13.40;99.90
13606;DHT22;6874;52.084;5.090;2022-10-16T09:48:12;13.40;99.90
13606;DHT22;6874;52.084;5.090;2022-10-16T09:50:41;13.50;99.90
13606;DHT22;6874;52.084;5.090;2022-10-16T09:53:14;13.60;99.90
13606;DHT22;6874;52.084;5.090;2022-10-16T09:55:51;13.60;99.90
13606;DHT22;6874;52.084;5.090;2022-10-16T09:58:16;13.60;99.90
13606;DHT22;6874;52.084;5.090;2022-10-16T10:00:52;13.70;99.90
13606;DHT22;6874;52.084;5.090;2022-10-16T10:03:35;13.70;99.90
13606;DHT22;6874;52.084;5.090;2022-10-16T10:06:25;13.80;99.90
13606;DHT22;6874;52.084;5.090;2022-10-16T10:08:59;13.80;99.90
13606;DHT22;6874;52.084;5.090;2022-10-16T10:11:47;13.90;99.90
13606;DHT22;6874;52.084;5.090;2022-10-16T10:14:34;13.90;99.90
13606;DHT22;6874;52.084;5.090;2022-10-16T10:17:25;13.90;99.90
13606;DHT22;6874;52.084;5.090;2022-10-16T10:19:59;14.00;99.90
13606;DHT22;6874;52.084;5.090;2022-10-16T10:22:32;14.00;99.90
13606;DHT22;6874;52.084;5.090;2022-10-16T10:33:41;14.20;99.90
13606;DHT22;6874;52.084;5.090;2022-10-16T10:36:38;14.30;99.90
13606;DHT22;6874;52.084;5.090;2022-10-16T10:39:13;14.30;99.90
13606;DHT22;6874;52.084;5.090;2022-10-16T10:50:30;14.50;99.90
13606;DHT22;6874;52.084;5.090;2022-10-16T10:55:45;14.50;99.90
13606;DHT22;6874;52.084;5.090;2022-10-16T10:58:45;14.50;99.90
13606;DHT22;6874;52.084;5.090;2022-10-16T11:10:13;14.60;99.90
13606;DHT22;6874;52.084;5.090;2022-10-16T11:12:44;14.60;99.90
13606;DHT22;6874;52.084;5.090;2022-10-16T11:15:32;14.60;99.90
13606;DHT22;6874;52.084;5.090;2022-10-16T11:20:57;14.70;99.90
13606;DHT22;6874;52.084;5.090;2022-10-16T11:23:31;14.80;99.90
13606;DHT22;6874;52.084;5.090;2022-10-16T11:26:03;14.80;99.90
13606;DHT22;6874;52.084;5.090;2022-10-16T11:28:42;14.80;99.90
13606;DHT22;6874;52.084;5.090;2022-10-16T11:31:32;14.90;99.90
13606;DHT22;6874;52.084;5.090;2022-10-16T11:34:12;14.90;99.90
13606;DHT22;6874;52.084;5.090;2022-10-16T11:39:24;15.00;99.90
13606;DHT22;6874;52.084;5.090;2022-10-16T11:47:18;15.10;99.90
13606;DHT22;6874;52.084;5.090;2022-10-16T11:49:46;15.10;99.90
13606;DHT22;6874;52.084;5.090;2022-10-16T11:52:36;15.10;99.90
13606;DHT22;6874;52.084;5.090;2022-10-16T11:55:14;15.10;99.90
13606;DHT22;6874;52.084;5.090;2022-10-16T11:57:47;15.10;99.90
13606;DHT22;6874;52.084;5.090;2022-10-16T12:00:40;15.10;99.90
13606;DHT22;6874;52.084;5.090;2022-10-16T12:03:19;15.10;99.90
13606;DHT22;6874;52.084;5.090;2022-10-16T12:08:36;15.20;99.90
13606;DHT22;6874;52.084;5.090;2022-10-16T12:11:32;15.30;99.90
13606;DHT22;6874;52.084;5.090;2022-10-16T12:16:38;15.30;99.90
13606;DHT22;6874;52.084;5.090;2022-10-16T12:19:12;15.40;99.90
13606;DHT22;6874;52.084;5.090;2022-10-16T12:21:38;15.40;99.90
13606;DHT22;6874;52.084;5.090;2022-10-16T12:24:04;15.50;99.90
13606;DHT22;6874;52.084;5.090;2022-10-16T12:26:37;15.50;99.90
13606;DHT22;6874;52.084;5.090;2022-10-16T12:29:21;15.60;99.90
13606;DHT22;6874;52.084;5.090;2022-10-16T12:31:50;15.70;99.90
13606;DHT22;6874;52.084;5.090;2022-10-16T12:34:41;15.70;99.90
13606;DHT22;6874;52.084;5.090;2022-10-16T12:37:29;15.80;99.90
13606;DHT22;6874;52.084;5.090;2022-10-16T12:39:56;15.80;99.90
13606;DHT22;6874;52.084;5.090;2022-10-16T12:44:52;16.00;99.90
13606;DHT22;6874;52.084;5.090;2022-10-16T12:47:48;16.00;99.90
13606;DHT22;6874;52.084;5.090;2022-10-16T12:52:59;16.10;99.90
13606;DHT22;6874;52.084;5.090;2022-10-16T12:55:26;16.10;99.90
13606;DHT22;6874;52.084;5.090;2022-10-16T13:00:57;16.20;99.90
13606;DHT22;6874;52.084;5.090;2022-10-16T13:09:11;16.40;99.90
13606;DHT22;6874;52.084;5.090;2022-10-16T13:20:35;16.50;99.90
13606;DHT22;6874;52.084;5.090;2022-10-16T13:23:08;16.60;99.90
13606;DHT22;6874;52.084;5.090;2022-10-16T13:25:59;16.60;99.90
13606;DHT22;6874;52.084;5.090;2022-10-16T13:28:32;16.60;99.90
13606;DHT22;6874;52.084;5.090;2022-10-16T13:31:00;16.70;99.90
13606;DHT22;6874;52.084;5.090;2022-10-16T13:33:35;16.70;99.90
13606;DHT22;6874;52.084;5.090;2022-10-16T13:36:01;16.70;99.90
13606;DHT22;6874;52.084;5.090;2022-10-16T13:38:30;16.70;99.90
13606;DHT22;6874;52.084;5.090;2022-10-16T13:41:17;16.80;99.90
13606;DHT22;6874;52.084;5.090;2022-10-16T13:43:51;16.80;99.90
13606;DHT22;6874;52.084;5.090;2022-10-16T13:46:23;16.80;99.90
13606;DHT22;6874;52.084;5.090;2022-10-16T13:49:16;16.80;99.90
13606;DHT22;6874;52.084;5.090;2022-10-16T13:51:54;16.90;99.90
13606;DHT22;6874;52.084;5.090;2022-10-16T13:54:20;16.90;99.90
13606;DHT22;6874;52.084;5.090;2022-10-16T13:56:46;16.90;99.90
13606;DHT22;6874;52.084;5.090;2022-10-16T13:59:36;16.90;99.90
13606;DHT22;6874;52.084;5.090;2022-10-16T14:02:19;16.90;99.90
13606;DHT22;6874;52.084;5.090;2022-10-16T14:04:46;16.90;99.90
13606;DHT22;6874;52.084;5.090;2022-10-16T14:07:23;16.90;99.90
13606;DHT22;6874;52.084;5.090;2022-10-16T14:09:50;16.90;99.90
13606;DHT22;6874;52.084;5.090;2022-10-16T14:12:16;16.90;99.90
13606;DHT22;6874;52.084;5.090;2022-10-16T14:14:45;16.90;99.90
13606;DHT22;6874;52.084;5.090;2022-10-16T14:17:22;16.90;99.90
13606;DHT22;6874;52.084;5.090;2022-10-16T14:19:50;16.90;99.90
13606;DHT22;6874;52.084;5.090;2022-10-16T14:22:39;16.90;99.90
13606;DHT22;6874;52.084;5.090;2022-10-16T14:25:27;16.90;99.90
13606;DHT22;6874;52.084;5.090;2022-10-16T14:30:56;16.90;99.90
13606;DHT22;6874;52.084;5.090;2022-10-16T14:33:32;16.90;99.90
13606;DHT22;6874;52.084;5.090;2022-10-16T14:36:20;16.90;99.90
13606;DHT22;6874;52.084;5.090;2022-10-16T14:39:00;16.90;99.90
13606;DHT22;6874;52.084;5.090;2022-10-16T14:41:28;16.90;99.90
13606;DHT22;6874;52.084;5.090;2022-10-16T14:43:56;16.90;99.90
13606;DHT22;6874;52.084;5.090;2022-10-16T14:46:35;16.90;99.90
13606;DHT22;6874;52.084;5.090;2022-10-16T14:49:13;16.90;99.90
13606;DHT22;6874;52.084;5.090;2022-10-16T14:51:41;16.90;99.90
13606;DHT22;6874;52.084;5.090;2022-10-16T14:54:09;16.90;99.90
13606;DHT22;6874;52.084;5.090;2022-10-16T14:59:30;16.90;99.90
13606;DHT22;6874;52.084;5.090;2022-10-16T15:01:57;16.90;99.90
13606;DHT22;6874;52.084;5.090;2022-10-16T15:04:23;16.90;99.90
13606;DHT22;6874;52.084;5.090;2022-10-16T15:06:48;16.90;99.90
13606;DHT22;6874;52.084;5.090;2022-10-16T15:09:14;16.90;99.90
13606;DHT22;6874;52.084;5.090;2022-10-16T15:11:39;16.90;99.90
13606;DHT22;6874;52.084;5.090;2022-10-16T15:14:05;16.90;99.90
13606;DHT22;6874;52.084;5.090;2022-10-16T15:16:31;16.90;99.90
13606;DHT22;6874;52.084;5.090;2022-10-16T15:18:57;16.90;99.90
13606;DHT22;6874;52.084;5.090;2022-10-16T15:21:29;16.80;99.90
13606;DHT22;6874;52.084;5.090;2022-10-16T15:23:55;16.80;99.90
13606;DHT22;6874;52.084;5.090;2022-10-16T15:26:23;16.80;99.90
13606;DHT22;6874;52.084;5.090;2022-10-16T15:28:48;16.80;99.90
13606;DHT22;6874;52.084;5.090;2022-10-16T15:31:14;16.80;99.90
13606;DHT22;6874;52.084;5.090;2022-10-16T15:33:40;16.80;99.90
13606;DHT22;6874;52.084;5.090;2022-10-16T15:36:06;16.80;99.90
13606;DHT22;6874;52.084;5.090;2022-10-16T15:38:31;16.70;99.90
13606;DHT22;6874;52.084;5.090;2022-10-16T15:40:57;16.70;99.90
13606;DHT22;6874;52.084;5.090;2022-10-16T15:43:23;16.70;99.90
13606;DHT22;6874;52.084;5.090;2022-10-16T15:46:15;16.70;99.90
13606;DHT22;6874;52.084;5.090;2022-10-16T15:48:42;16.70;99.90
13606;DHT22;6874;52.084;5.090;2022-10-16T15:51:09;16.70;99.90
13606;DHT22;6874;52.084;5.090;2022-10-16T15:53:35;16.60;99.90
13606;DHT22;6874;52.084;5.090;2022-10-16T15:56:09;16.60;99.90
13606;DHT22;6874;52.084;5.090;2022-10-16T15:58:35;16.60;99.90
13606;DHT22;6874;52.084;5.090;2022-10-16T16:01:01;16.50;99.90
13606;DHT22;6874;52.084;5.090;2022-10-16T16:03:28;16.50;99.90
13606;DHT22;6874;52.084;5.090;2022-10-16T16:05:54;16.50;99.90
13606;DHT22;6874;52.084;5.090;2022-10-16T16:08:20;16.50;99.90
13606;DHT22;6874;52.084;5.090;2022-10-16T16:11:00;16.40;99.90
13606;DHT22;6874;52.084;5.090;2022-10-16T16:13:25;16.40;99.90
13606;DHT22;6874;52.084;5.090;2022-10-16T16:15:51;16.40;99.90
13606;DHT22;6874;52.084;5.090;2022-10-16T16:18:16;16.40;99.90
13606;DHT22;6874;52.084;5.090;2022-10-16T16:20:42;16.30;99.90
13606;DHT22;6874;52.084;5.090;2022-10-16T16:23:07;16.30;99.90
13606;DHT22;6874;52.084;5.090;2022-10-16T16:25:33;16.30;99.90
13606;DHT22;6874;52.084;5.090;2022-10-16T16:27:58;16.30;99.90
13606;DHT22;6874;52.084;5.090;2022-10-16T16:30:24;16.30;99.90
13606;DHT22;6874;52.084;5.090;2022-10-16T16:32:50;16.20;99.90
13606;DHT22;6874;52.084;5.090;2022-10-16T16:35:15;16.30;99.90
13606;DHT22;6874;52.084;5.090;2022-10-16T16:37:41;16.10;99.90
13606;DHT22;6874;52.084;5.090;2022-10-16T16:40:06;16.10;99.90
13606;DHT22;6874;52.084;5.090;2022-10-16T16:42:32;16.10;99.90
13606;DHT22;6874;52.084;5.090;2022-10-16T16:44:57;16.10;99.90
13606;DHT22;6874;52.084;5.090;2022-10-16T16:47:23;16.00;99.90
13606;DHT22;6874;52.084;5.090;2022-10-16T16:49:49;16.00;99.90
13606;DHT22;6874;52.084;5.090;2022-10-16T16:52:15;16.10;99.90
13606;DHT22;6874;52.084;5.090;2022-10-16T16:54:40;16.00;99.90
13606;DHT22;6874;52.084;5.090;2022-10-16T16:57:06;16.00;99.90
13606;DHT22;6874;52.084;5.090;2022-10-16T16:59:31;15.90;99.90
13606;DHT22;6874;52.084;5.090;2022-10-16T17:02:01;15.90;99.90
13606;DHT22;6874;52.084;5.090;2022-10-16T17:04:27;15.80;99.90
13606;DHT22;6874;52.084;5.090;2022-10-16T17:06:54;15.80;99.90
13606;DHT22;6874;52.084;5.090;2022-10-16T17:09:20;15.80;99.90
13606;DHT22;6874;52.084;5.090;2022-10-16T17:11:46;15.70;99.90
13606;DHT22;6874;52.084;5.090;2022-10-16T17:14:13;15.70;99.90
13606;DHT22;6874;52.084;5.090;2022-10-16T17:16:40;15.70;99.90
13606;DHT22;6874;52.084;5.090;2022-10-16T17:19:12;15.70;99.90
13606;DHT22;6874;52.084;5.090;2022-10-16T17:21:38;15.70;99.90
13606;DHT22;6874;52.084;5.090;2022-10-16T17:24:04;15.60;99.90
13606;DHT22;6874;52.084;5.090;2022-10-16T17:26:30;15.60;99.90
13606;DHT22;6874;52.084;5.090;2022-10-16T17:28:59;15.60;99.90
13606;DHT22;6874;52.084;5.090;2022-10-16T17:31:35;15.60;99.90
13606;DHT22;6874;52.084;5.090;2022-10-16T17:34:03;15.50;99.90
13606;DHT22;6874;52.084;5.090;2022-10-16T17:36:31;15.50;99.90
13606;DHT22;6874;52.084;5.090;2022-10-16T17:39:08;15.50;99.90